createdAt,value
2023-04-29T00:00:04.638Z,948.2600
2023-04-29T00:01:07.834Z,948.2426
2023-04-29T00:02:10.948Z,948.2026
2023-04-29T00:03:14.349Z,948.1895
2023-04-29T00:04:14.563Z,948.1910
2023-04-29T00:05:14.926Z,948.1689
2023-04-29T00:06:15.460Z,948.1622
2023-04-29T00:07:16.517Z,948.1544
2023-04-29T00:08:19.635Z,948.1622
2023-04-29T00:09:22.761Z,948.1794
2023-04-29T00:10:25.857Z,948.1674
2023-04-29T00:11:29.048Z,948.1432
2023-04-29T00:12:32.198Z,948.1526
2023-04-29T00:13:35.257Z,948.1405
2023-04-29T00:14:38.366Z,948.1263
2023-04-29T00:15:41.501Z,948.0963
2023-04-29T00:16:44.647Z,948.0690
2023-04-29T00:17:47.729Z,948.0363
2023-04-29T00:18:50.824Z,948.0121
2023-04-29T00:19:54.286Z,948.0068
2023-04-29T00:20:54.419Z,948.0000
2023-04-29T00:21:56.333Z,947.9861
2023-04-29T00:22:56.249Z,947.9545
2023-04-29T00:23:59.340Z,947.9500
2023-04-29T00:25:02.451Z,947.9669
2023-04-29T00:26:05.584Z,947.9847
2023-04-29T00:27:08.756Z,948.0068
2023-04-29T00:28:11.873Z,948.0132
2023-04-29T00:29:14.973Z,947.9921
2023-04-29T00:30:18.059Z,948.0042
2023-04-29T00:31:21.218Z,948.0121
2023-04-29T00:32:24.299Z,948.0379
2023-04-29T00:33:27.461Z,948.0658
2023-04-29T00:34:27.363Z,948.0737
2023-04-29T00:35:30.473Z,948.0911
2023-04-29T00:36:33.594Z,948.0768
2023-04-29T00:37:36.686Z,948.0632
2023-04-29T00:38:39.943Z,948.0706
2023-04-29T00:39:39.832Z,948.0989
2023-04-29T00:40:42.954Z,948.1011
2023-04-29T00:41:46.223Z,948.0800
2023-04-29T00:42:49.293Z,948.0726
2023-04-29T00:43:52.427Z,948.0474
2023-04-29T00:44:55.539Z,948.0463
2023-04-29T00:45:58.659Z,948.0116
2023-04-29T00:47:01.762Z,947.9937
2023-04-29T00:48:05.265Z,947.9810
2023-04-29T00:49:05.743Z,947.9863
2023-04-29T00:50:05.628Z,947.9794
2023-04-29T00:51:08.719Z,947.9989
2023-04-29T00:52:11.809Z,948.0037
2023-04-29T00:53:14.995Z,947.9984
2023-04-29T00:54:18.119Z,948.0021
2023-04-29T00:55:21.217Z,948.0005
2023-04-29T00:56:24.382Z,947.9900
2023-04-29T00:57:27.441Z,947.9711
2023-04-29T00:58:30.692Z,947.9479
2023-04-29T00:59:30.580Z,947.9352
2023-04-29T01:00:33.705Z,947.9089
2023-04-29T01:01:37.171Z,947.8890
2023-04-29T01:02:37.210Z,947.8679
2023-04-29T01:03:37.335Z,947.8772
2023-04-29T01:04:37.374Z,947.8928
2023-04-29T01:05:40.526Z,947.8856
2023-04-29T01:06:43.626Z,947.8684
2023-04-29T01:07:46.749Z,947.8752
2023-04-29T01:08:49.853Z,947.8705
2023-04-29T01:09:53.263Z,947.8832
2023-04-29T01:10:53.317Z,947.8658
2023-04-29T01:11:56.392Z,947.8655
2023-04-29T01:12:59.518Z,947.8616
2023-04-29T01:14:02.619Z,947.9005
2023-04-29T01:15:05.725Z,947.9147
2023-04-29T01:16:09.081Z,947.8900
2023-04-29T01:17:08.988Z,947.9058
2023-04-29T01:18:12.104Z,947.9028
2023-04-29T01:19:15.183Z,947.8884
2023-04-29T01:20:18.264Z,947.8858
2023-04-29T01:21:21.382Z,947.8890
2023-04-29T01:22:24.525Z,947.8895
2023-04-29T01:23:27.634Z,947.8790
2023-04-29T01:24:30.772Z,947.8668
2023-04-29T01:25:33.897Z,947.8663
2023-04-29T01:26:37.010Z,947.8574
2023-04-29T01:27:40.168Z,947.8531
2023-04-29T01:28:43.378Z,947.8384
2023-04-29T01:29:46.455Z,947.8458
2023-04-29T01:30:49.557Z,947.8447
2023-04-29T01:31:52.794Z,947.8427
2023-04-29T01:32:52.783Z,947.8495
2023-04-29T01:33:55.976Z,947.8489
2023-04-29T01:34:59.150Z,947.8290
2023-04-29T01:35:59.086Z,947.8206
2023-04-29T01:37:02.183Z,947.8278
2023-04-29T01:38:05.349Z,947.8206
2023-04-29T01:39:08.590Z,947.8237
2023-04-29T01:40:08.508Z,947.8400
2023-04-29T01:41:11.623Z,947.8300
2023-04-29T01:42:14.735Z,947.8447
2023-04-29T01:43:17.874Z,947.8636
2023-04-29T01:44:17.881Z,947.8768
2023-04-29T01:45:20.997Z,947.8950
2023-04-29T01:46:24.155Z,947.9184
2023-04-29T01:47:27.331Z,947.9268
2023-04-29T01:48:30.467Z,947.9252
2023-04-29T01:50:48.303Z,947.9147
2023-04-29T01:50:48.303Z,947.9005
2023-04-29T01:51:48.214Z,947.9100
2023-04-29T01:52:51.379Z,947.9211
2023-04-29T01:53:51.407Z,947.9221
2023-04-29T01:54:51.337Z,947.9200
2023-04-29T01:55:54.576Z,947.9366
2023-04-29T01:56:54.477Z,947.9479
2023-04-29T01:57:57.625Z,947.9639
2023-04-29T01:59:00.807Z,947.9778
2023-04-29T02:00:00.743Z,947.9752
2023-04-29T02:01:03.976Z,947.9766
2023-04-29T02:02:03.955Z,947.9758
2023-04-29T02:03:03.993Z,947.9622
2023-04-29T02:04:04.098Z,947.9561
2023-04-29T02:05:07.200Z,947.9133
2023-04-29T02:06:10.337Z,947.9200
2023-04-29T02:07:13.508Z,947.9268
2023-04-29T02:08:16.654Z,947.9216
2023-04-29T02:09:19.904Z,947.9174
2023-04-29T02:10:19.829Z,947.8921
2023-04-29T02:11:23.162Z,947.8900
2023-04-29T02:12:23.079Z,947.8942
2023-04-29T02:13:23.469Z,947.8734
2023-04-29T02:14:23.473Z,947.8605
2023-04-29T02:15:23.509Z,947.8317
2023-04-29T02:16:26.682Z,947.8284
2023-04-29T02:17:29.771Z,947.8079
2023-04-29T02:18:33.013Z,947.8000
2023-04-29T02:19:33.074Z,947.7811
2023-04-29T02:20:33.076Z,947.7717
2023-04-29T02:21:33.060Z,947.7556
2023-04-29T02:22:36.278Z,947.7628
2023-04-29T02:23:36.245Z,947.7616
2023-04-29T02:24:39.470Z,947.7645
2023-04-29T02:25:39.505Z,947.7616
2023-04-29T02:26:39.445Z,947.7772
2023-04-29T02:27:42.687Z,947.7689
2023-04-29T02:28:45.803Z,947.7858
2023-04-29T02:29:49.014Z,947.7895
2023-04-29T02:30:48.972Z,947.7947
2023-04-29T02:31:52.143Z,947.7778
2023-04-29T02:32:55.352Z,947.7679
2023-04-29T02:33:55.277Z,947.7947
2023-04-29T02:34:58.423Z,947.7967
2023-04-29T02:36:01.613Z,947.7742
2023-04-29T02:37:01.559Z,947.7653
2023-04-29T02:38:04.756Z,947.7778
2023-04-29T02:39:04.688Z,947.7889
2023-04-29T02:40:07.838Z,947.8200
2023-04-29T02:41:11.021Z,947.8300
2023-04-29T02:42:10.976Z,947.8268
2023-04-29T02:43:14.178Z,947.8172
2023-04-29T02:44:14.117Z,947.8316
2023-04-29T02:45:17.267Z,947.8433
2023-04-29T02:46:20.449Z,947.8500
2023-04-29T02:47:23.582Z,947.8558
2023-04-29T02:48:26.782Z,947.8668
2023-04-29T02:49:26.809Z,947.8690
2023-04-29T02:50:26.768Z,947.8650
2023-04-29T02:51:29.918Z,947.8622
2023-04-29T02:52:33.034Z,947.8610
2023-04-29T02:53:36.252Z,947.8663
2023-04-29T02:54:36.217Z,947.8726
2023-04-29T02:55:39.396Z,947.8589
2023-04-29T02:56:42.557Z,947.8447
2023-04-29T02:57:45.778Z,947.8258
2023-04-29T02:58:45.747Z,947.8226
2023-04-29T02:59:48.928Z,947.8156
2023-04-29T03:00:52.131Z,947.8021
2023-04-29T03:01:53.329Z,947.8105
2023-04-29T03:02:53.388Z,947.8278
2023-04-29T03:03:53.633Z,947.8306
2023-04-29T03:04:54.566Z,947.8384
2023-04-29T03:05:57.811Z,947.8566
2023-04-29T03:06:57.723Z,947.8479
2023-04-29T03:08:00.895Z,947.8522
2023-04-29T03:09:04.040Z,947.8489
2023-04-29T03:10:07.232Z,947.8547
2023-04-29T03:11:07.197Z,947.8552
2023-04-29T03:12:10.415Z,947.8522
2023-04-29T03:13:10.424Z,947.8469
2023-04-29T03:14:10.365Z,947.8472
2023-04-29T03:15:11.332Z,947.8505
2023-04-29T03:16:14.513Z,947.8428
2023-04-29T03:17:17.697Z,947.8484
2023-04-29T03:18:17.734Z,947.8364
2023-04-29T03:19:17.705Z,947.8472
2023-04-29T03:20:20.881Z,947.8406
2023-04-29T03:21:20.893Z,947.8216
2023-04-29T03:22:24.073Z,947.8322
2023-04-29T03:23:27.235Z,947.8190
2023-04-29T03:24:27.285Z,947.8152
2023-04-29T03:25:30.481Z,947.7994
2023-04-29T03:26:30.559Z,947.7863
2023-04-29T03:27:30.465Z,947.7684
2023-04-29T03:28:34.428Z,947.7428
2023-04-29T03:29:34.335Z,947.7084
2023-04-29T03:30:37.477Z,947.6884
2023-04-29T03:31:40.694Z,947.6668
2023-04-29T03:32:40.716Z,947.6400
2023-04-29T03:33:40.675Z,947.6322
2023-04-29T03:34:44.011Z,947.6250
2023-04-29T03:35:44.019Z,947.6158
2023-04-29T03:36:43.997Z,947.6128
2023-04-29T03:37:43.966Z,947.6039
2023-04-29T03:38:47.162Z,947.5778
2023-04-29T03:39:47.204Z,947.5721
2023-04-29T03:40:47.107Z,947.5684
2023-04-29T03:42:11.357Z,947.5566
2023-04-29T03:42:52.119Z,947.5526
2023-04-29T03:43:52.133Z,947.5441
2023-04-29T03:44:52.091Z,947.5405
2023-04-29T03:45:55.311Z,947.5106
2023-04-29T03:46:55.343Z,947.5110
2023-04-29T03:47:55.365Z,947.5200
2023-04-29T03:48:58.513Z,947.5261
2023-04-29T03:50:01.737Z,947.5206
2023-04-29T03:51:02.687Z,947.5153
2023-04-29T03:52:05.846Z,947.5022
2023-04-29T03:53:05.788Z,947.5068
2023-04-29T03:54:08.952Z,947.5311
2023-04-29T03:55:12.124Z,947.5632
2023-04-29T03:56:16.944Z,947.5758
2023-04-29T03:57:17.372Z,947.5842
2023-04-29T03:58:17.443Z,947.5778
2023-04-29T03:59:17.734Z,947.5555
2023-04-29T04:00:17.674Z,947.5478
2023-04-29T04:01:17.668Z,947.5483
2023-04-29T04:02:20.935Z,947.5555
2023-04-29T04:03:21.200Z,947.5674
2023-04-29T04:04:21.382Z,947.5806
2023-04-29T04:05:21.416Z,947.5672
2023-04-29T04:06:24.562Z,947.5572
2023-04-29T04:07:24.597Z,947.5521
2023-04-29T04:08:27.829Z,947.5539
2023-04-29T04:09:27.766Z,947.5626
2023-04-29T04:10:30.931Z,947.5583
2023-04-29T04:11:34.063Z,947.5600
2023-04-29T04:12:37.269Z,947.5526
2023-04-29T04:13:37.309Z,947.5389
2023-04-29T04:14:37.202Z,947.5344
2023-04-29T04:15:40.339Z,947.5439
2023-04-29T04:16:43.582Z,947.5521
2023-04-29T04:17:44.561Z,947.5832
2023-04-29T04:18:47.723Z,947.6033
2023-04-29T04:19:51.046Z,947.6194
2023-04-29T04:20:52.161Z,947.6284
2023-04-29T04:21:55.282Z,947.6345
2023-04-29T04:22:58.379Z,947.6368
2023-04-29T04:24:01.631Z,947.6374
2023-04-29T04:25:01.862Z,947.6558
2023-04-29T04:26:01.870Z,947.6761
2023-04-29T04:27:01.995Z,947.7061
2023-04-29T04:28:01.899Z,947.7389
2023-04-29T04:29:05.024Z,947.7661
2023-04-29T04:30:08.325Z,947.7831
2023-04-29T04:31:08.367Z,947.8047
2023-04-29T04:32:08.303Z,947.8089
2023-04-29T04:33:08.289Z,947.8111
2023-04-29T04:34:12.137Z,947.8267
2023-04-29T04:35:12.126Z,947.8400
2023-04-29T04:36:15.300Z,947.8489
2023-04-29T04:37:15.361Z,947.8495
2023-04-29T04:38:15.298Z,947.8550
2023-04-29T04:39:18.449Z,947.8544
2023-04-29T04:40:21.595Z,947.8721
2023-04-29T04:41:25.077Z,947.8969
2023-04-29T04:42:25.077Z,947.9147
2023-04-29T04:43:28.236Z,947.9266
2023-04-29T04:44:31.462Z,947.9500
2023-04-29T04:45:31.366Z,947.9595
2023-04-29T04:46:34.554Z,947.9794
2023-04-29T04:47:37.744Z,948.0068
2023-04-29T04:48:40.854Z,948.0242
2023-04-29T04:49:44.029Z,948.0164
2023-04-29T04:50:47.184Z,948.0121
2023-04-29T04:51:50.328Z,948.0358
2023-04-29T04:52:53.521Z,948.0447
2023-04-29T04:53:56.616Z,948.0452
2023-04-29T04:54:59.757Z,948.0474
2023-04-29T04:56:02.897Z,948.0526
2023-04-29T04:57:06.077Z,948.0668
2023-04-29T04:58:06.039Z,948.0716
2023-04-29T04:59:09.454Z,948.0800
2023-04-29T05:00:09.358Z,948.0853
2023-04-29T05:01:12.550Z,948.0917
2023-04-29T05:02:15.746Z,948.0884
2023-04-29T05:03:19.028Z,948.0895
2023-04-29T05:04:19.956Z,948.0911
2023-04-29T05:05:20.042Z,948.0983
2023-04-29T05:06:19.961Z,948.1044
2023-04-29T05:07:23.727Z,948.1111
2023-04-29T05:08:23.668Z,948.1194
2023-04-29T05:09:26.772Z,948.1311
2023-04-29T05:10:29.923Z,948.1426
2023-04-29T05:11:33.104Z,948.1458
2023-04-29T05:12:33.065Z,948.1553
2023-04-29T05:13:36.233Z,948.1716
2023-04-29T05:14:36.196Z,948.1826
2023-04-29T05:15:39.336Z,948.1972
2023-04-29T05:16:42.834Z,948.2169
2023-04-29T05:17:42.861Z,948.2210
2023-04-29T05:18:45.979Z,948.2316
2023-04-29T05:19:49.305Z,948.2142
2023-04-29T05:20:49.240Z,948.2111
2023-04-29T05:21:52.433Z,948.1961
2023-04-29T05:22:52.379Z,948.1868
2023-04-29T05:23:55.502Z,948.1972
2023-04-29T05:24:58.651Z,948.2163
2023-04-29T05:26:01.861Z,948.2426
2023-04-29T05:27:01.805Z,948.2606
2023-04-29T05:28:05.020Z,948.2806
2023-04-29T05:29:08.257Z,948.2994
2023-04-29T05:30:08.230Z,948.3052
2023-04-29T05:31:11.569Z,948.3134
2023-04-29T05:32:11.544Z,948.3290
2023-04-29T05:33:16.053Z,948.3200
2023-04-29T05:34:15.999Z,948.3268
2023-04-29T05:35:16.388Z,948.3278
2023-04-29T05:36:16.289Z,948.3406
2023-04-29T05:37:19.482Z,948.3517
2023-04-29T05:38:19.483Z,948.3405
2023-04-29T05:39:22.699Z,948.3172
2023-04-29T05:40:22.678Z,948.3047
2023-04-29T05:41:25.832Z,948.3122
2023-04-29T05:42:25.839Z,948.3179
2023-04-29T05:43:29.058Z,948.3489
2023-04-29T05:44:29.003Z,948.3578
2023-04-29T05:45:29.815Z,948.3650
2023-04-29T05:46:30.287Z,948.3639
2023-04-29T05:47:30.528Z,948.3678
2023-04-29T05:48:30.576Z,948.3722
2023-04-29T05:49:33.755Z,948.3716
2023-04-29T05:50:36.946Z,948.4021
2023-04-29T05:51:37.429Z,948.3890
2023-04-29T05:52:37.360Z,948.3967
2023-04-29T05:53:40.570Z,948.4166
2023-04-29T05:54:40.570Z,948.4194
2023-04-29T05:55:40.557Z,948.4311
2023-04-29T05:56:43.739Z,948.4522
2023-04-29T05:57:43.869Z,948.4406
2023-04-29T05:58:44.264Z,948.4461
2023-04-29T05:59:44.189Z,948.4500
2023-04-29T06:00:44.162Z,948.4522
2023-04-29T06:01:47.596Z,948.4761
2023-04-29T06:02:58.280Z,948.4879
2023-04-29T06:03:50.639Z,948.5005
2023-04-29T06:04:51.081Z,948.5159
2023-04-29T06:05:51.226Z,948.5134
2023-04-29T06:06:53.473Z,948.5145
2023-04-29T06:07:53.370Z,948.5200
2023-04-29T06:08:56.527Z,948.5156
2023-04-29T06:09:59.710Z,948.5174
2023-04-29T06:11:02.898Z,948.5106
2023-04-29T06:12:06.052Z,948.4958
2023-04-29T06:13:09.266Z,948.4990
2023-04-29T06:14:12.410Z,948.5010
2023-04-29T06:15:15.550Z,948.4963
2023-04-29T06:16:18.838Z,948.5037
2023-04-29T06:17:18.775Z,948.5037
2023-04-29T06:18:21.907Z,948.5172
2023-04-29T06:19:25.188Z,948.5110
2023-04-29T06:20:25.086Z,948.5037
2023-04-29T06:21:28.330Z,948.5045
2023-04-29T06:22:28.285Z,948.5153
2023-04-29T06:23:31.443Z,948.5156
2023-04-29T06:24:34.652Z,948.5274
2023-04-29T06:25:37.741Z,948.5342
2023-04-29T06:26:40.944Z,948.5436
2023-04-29T06:27:44.061Z,948.5463
2023-04-29T06:28:47.226Z,948.5458
2023-04-29T06:29:50.381Z,948.5416
2023-04-29T06:30:53.498Z,948.5579
2023-04-29T06:31:56.665Z,948.5684
2023-04-29T06:32:59.825Z,948.5726
2023-04-29T06:34:02.979Z,948.5853
2023-04-29T06:35:06.116Z,948.6000
2023-04-29T06:36:09.240Z,948.5916
2023-04-29T06:37:12.382Z,948.5900
2023-04-29T06:38:15.592Z,948.5963
2023-04-29T06:39:15.634Z,948.6037
2023-04-29T06:40:15.622Z,948.6017
2023-04-29T06:41:18.748Z,948.5867
2023-04-29T06:42:18.738Z,948.6126
2023-04-29T06:43:21.874Z,948.6183
2023-04-29T06:44:25.230Z,948.6284
2023-04-29T06:45:25.368Z,948.6411
2023-04-29T06:46:25.345Z,948.6539
2023-04-29T06:47:28.583Z,948.6572
2023-04-29T06:48:28.494Z,948.6636
2023-04-29T06:49:31.683Z,948.6655
2023-04-29T06:50:31.711Z,948.6600
2023-04-29T06:51:34.985Z,948.6705
2023-04-29T06:52:34.996Z,948.6732
2023-04-29T06:53:38.141Z,948.6672
2023-04-29T06:54:38.099Z,948.6569
2023-04-29T06:55:41.252Z,948.6622
2023-04-29T06:56:44.402Z,948.6647
2023-04-29T06:57:47.553Z,948.6826
2023-04-29T06:58:50.701Z,948.6958
2023-04-29T06:59:54.013Z,948.7058
2023-04-29T07:00:54.267Z,948.7163
2023-04-29T07:01:54.310Z,948.7172
2023-04-29T07:02:54.362Z,948.7045
2023-04-29T07:03:54.408Z,948.6984
2023-04-29T07:04:54.525Z,948.7039
2023-04-29T07:05:54.665Z,948.7084
2023-04-29T07:06:54.625Z,948.7144
2023-04-29T07:07:57.794Z,948.7289
2023-04-29T07:09:00.974Z,948.7195
2023-04-29T07:10:04.154Z,948.7095
2023-04-29T07:11:07.307Z,948.7189
2023-04-29T07:12:10.541Z,948.7095
2023-04-29T07:13:13.663Z,948.6868
2023-04-29T07:14:16.844Z,948.6837
2023-04-29T07:15:20.002Z,948.6848
2023-04-29T07:16:23.176Z,948.6926
2023-04-29T07:17:26.414Z,948.6953
2023-04-29T07:18:26.324Z,948.6958
2023-04-29T07:19:29.500Z,948.7067
2023-04-29T07:20:29.442Z,948.7147
2023-04-29T07:21:32.643Z,948.7300
2023-04-29T07:22:32.589Z,948.7242
2023-04-29T07:23:35.769Z,948.7350
2023-04-29T07:24:39.236Z,948.7537
2023-04-29T07:25:39.172Z,948.7537
2023-04-29T07:26:42.368Z,948.7772
2023-04-29T07:27:42.356Z,948.7900
2023-04-29T07:28:45.553Z,948.7911
2023-04-29T07:29:45.515Z,948.8163
2023-04-29T07:30:48.741Z,948.8267
2023-04-29T07:31:48.719Z,948.8274
2023-04-29T07:32:48.706Z,948.8300
2023-04-29T07:33:51.856Z,948.8278
2023-04-29T07:34:55.328Z,948.8306
2023-04-29T07:35:55.393Z,948.8411
2023-04-29T07:36:58.592Z,948.8483
2023-04-29T07:38:01.735Z,948.8574
2023-04-29T07:39:04.972Z,948.8690
2023-04-29T07:40:04.911Z,948.8732
2023-04-29T07:41:08.081Z,948.8872
2023-04-29T07:42:08.094Z,948.9021
2023-04-29T07:43:09.437Z,948.9011
2023-04-29T07:44:10.462Z,948.8922
2023-04-29T07:45:10.431Z,948.8867
2023-04-29T07:46:13.632Z,948.8972
2023-04-29T07:47:16.805Z,948.9073
2023-04-29T07:48:16.808Z,948.9216
2023-04-29T07:49:19.999Z,948.9239
2023-04-29T07:50:19.975Z,948.9279
2023-04-29T07:51:23.181Z,948.9328
2023-04-29T07:52:26.313Z,948.9416
2023-04-29T07:53:29.593Z,948.9464
2023-04-29T07:54:29.464Z,948.9600
2023-04-29T07:55:32.688Z,948.9672
2023-04-29T07:56:35.845Z,948.9758
2023-04-29T07:57:38.972Z,948.9673
2023-04-29T07:58:42.140Z,948.9778
2023-04-29T07:59:45.360Z,948.9821
2023-04-29T08:00:48.515Z,948.9821
2023-04-29T08:01:51.718Z,948.9626
2023-04-29T08:02:51.794Z,948.9626
2023-04-29T08:03:51.921Z,948.9755
2023-04-29T08:04:52.481Z,948.9778
2023-04-29T08:05:52.663Z,948.9805
2023-04-29T08:06:55.768Z,948.9978
2023-04-29T08:07:58.940Z,949.0084
2023-04-29T08:09:03.230Z,949.0084
2023-04-29T08:10:03.313Z,949.0184
2023-04-29T08:11:06.756Z,949.0089
2023-04-29T08:12:07.616Z,949.0052
2023-04-29T08:13:08.630Z,949.0161
2023-04-29T08:14:11.817Z,949.0178
2023-04-29T08:15:14.971Z,949.0137
2023-04-29T08:16:18.233Z,948.9916
2023-04-29T08:17:18.219Z,949.0090
2023-04-29T08:18:18.196Z,949.0200
2023-04-29T08:19:21.415Z,949.0228
2023-04-29T08:20:21.458Z,949.0090
2023-04-29T08:21:21.395Z,949.0000
2023-04-29T08:22:24.561Z,949.0050
2023-04-29T08:23:24.571Z,948.9932
2023-04-29T08:24:27.825Z,948.9861
2023-04-29T08:25:27.787Z,948.9821
2023-04-29T08:26:30.959Z,948.9711
2023-04-29T08:27:34.141Z,948.9589
2023-04-29T08:28:37.296Z,948.9495
2023-04-29T08:29:37.330Z,948.9568
2023-04-29T08:30:40.458Z,948.9733
2023-04-29T08:31:43.624Z,948.9537
2023-04-29T08:32:46.816Z,948.9432
2023-04-29T08:33:49.925Z,948.9474
2023-04-29T08:34:53.372Z,948.9316
2023-04-29T08:35:53.374Z,948.9216
2023-04-29T08:36:56.536Z,948.9250
2023-04-29T08:37:59.664Z,948.9216
2023-04-29T08:39:02.817Z,948.9279
2023-04-29T08:40:05.997Z,948.9294
2023-04-29T08:41:09.094Z,948.9226
2023-04-29T08:42:12.243Z,948.9121
2023-04-29T08:43:15.357Z,948.8842
2023-04-29T08:44:18.487Z,948.8684
2023-04-29T08:45:21.728Z,948.8684
2023-04-29T08:46:24.802Z,948.8668
2023-04-29T08:47:28.003Z,948.8690
2023-04-29T08:48:31.183Z,948.8763
2023-04-29T08:49:31.138Z,948.8784
2023-04-29T08:50:34.272Z,948.8739
2023-04-29T08:51:37.445Z,948.8848
2023-04-29T08:52:40.557Z,948.8710
2023-04-29T08:53:43.686Z,948.8874
2023-04-29T08:54:46.837Z,948.8916
2023-04-29T08:55:49.964Z,948.8926
2023-04-29T08:56:53.108Z,948.8758
2023-04-29T08:57:56.244Z,948.8663
2023-04-29T08:58:59.345Z,948.8716
2023-04-29T09:00:02.595Z,948.8810
2023-04-29T09:01:05.717Z,948.8779
2023-04-29T09:02:08.834Z,948.8636
2023-04-29T09:03:12.039Z,948.8542
2023-04-29T09:04:12.064Z,948.8484
2023-04-29T09:05:12.979Z,948.8533
2023-04-29T09:06:16.100Z,948.8422
2023-04-29T09:07:19.244Z,948.8389
2023-04-29T09:08:22.350Z,948.8363
2023-04-29T09:09:25.474Z,948.8326
2023-04-29T09:10:28.602Z,948.8431
2023-04-29T09:11:31.813Z,948.8126
2023-04-29T09:12:34.910Z,948.8068
2023-04-29T09:13:38.036Z,948.8047
2023-04-29T09:14:41.155Z,948.8200
2023-04-29T09:15:44.273Z,948.8152
2023-04-29T09:16:47.625Z,948.8179
2023-04-29T09:17:47.724Z,948.8400
2023-04-29T09:18:47.634Z,948.8578
2023-04-29T09:19:50.745Z,948.8550
2023-04-29T09:20:53.853Z,948.8300
2023-04-29T09:21:57.022Z,948.8105
2023-04-29T09:23:00.202Z,948.8074
2023-04-29T09:24:03.329Z,948.7690
2023-04-29T09:25:06.461Z,948.7510
2023-04-29T09:26:09.621Z,948.7532
2023-04-29T09:27:09.586Z,948.7563
2023-04-29T09:28:12.745Z,948.7645
2023-04-29T09:29:15.887Z,948.7552
2023-04-29T09:30:19.013Z,948.7711
2023-04-29T09:31:22.161Z,948.7784
2023-04-29T09:32:25.319Z,948.7921
2023-04-29T09:33:28.421Z,948.7779
2023-04-29T09:34:31.521Z,948.7827
2023-04-29T09:35:34.776Z,948.7842
2023-04-29T09:36:37.869Z,948.7722
2023-04-29T09:37:41.035Z,948.7737
2023-04-29T09:38:44.736Z,948.7779
2023-04-29T09:39:44.629Z,948.7648
2023-04-29T09:40:59.029Z,948.7534
2023-04-29T09:41:50.362Z,948.7463
2023-04-29T09:42:53.495Z,948.7606
2023-04-29T09:43:56.668Z,948.7632
2023-04-29T09:44:59.805Z,948.7368
2023-04-29T09:46:02.962Z,948.7484
2023-04-29T09:47:06.101Z,948.7368
2023-04-29T09:48:09.219Z,948.7268
2023-04-29T09:49:12.349Z,948.6937
2023-04-29T09:50:15.490Z,948.7111
2023-04-29T09:51:18.616Z,948.7173
2023-04-29T09:52:21.786Z,948.6926
2023-04-29T09:53:24.957Z,948.7032
2023-04-29T09:54:28.087Z,948.6968
2023-04-29T09:55:31.211Z,948.6852
2023-04-29T09:56:34.332Z,948.6884
2023-04-29T09:57:37.492Z,948.6906
2023-04-29T09:58:40.638Z,948.6837
2023-04-29T09:59:43.966Z,948.6984
2023-04-29T10:00:43.863Z,948.6879
2023-04-29T10:01:47.071Z,948.6805
2023-04-29T10:02:50.302Z,948.6695
2023-04-29T10:03:50.375Z,948.6116
2023-04-29T10:04:50.491Z,948.6067
2023-04-29T10:05:50.404Z,948.6295
2023-04-29T10:06:53.533Z,948.6284
2023-04-29T10:07:56.695Z,948.6342
2023-04-29T10:08:59.828Z,948.6179
2023-04-29T10:10:02.977Z,948.6205
2023-04-29T10:11:06.327Z,948.5953
2023-04-29T10:12:06.218Z,948.5884
2023-04-29T10:13:09.330Z,948.5806
2023-04-29T10:14:12.510Z,948.5679
2023-04-29T10:15:15.632Z,948.5768
2023-04-29T10:16:18.867Z,948.5642
2023-04-29T10:17:18.798Z,948.5574
2023-04-29T10:18:21.915Z,948.5700
2023-04-29T10:19:25.094Z,948.5732
2023-04-29T10:20:28.225Z,948.5737
2023-04-29T10:21:31.723Z,948.5490
2023-04-29T10:22:31.790Z,948.5468
2023-04-29T10:23:34.914Z,948.5394
2023-04-29T10:24:38.124Z,948.5321
2023-04-29T10:25:38.033Z,948.5342
2023-04-29T10:26:41.165Z,948.5389
2023-04-29T10:27:44.348Z,948.5536
2023-04-29T10:28:47.492Z,948.5274
2023-04-29T10:29:50.628Z,948.5026
2023-04-29T10:30:53.754Z,948.4774
2023-04-29T10:31:56.889Z,948.4858
2023-04-29T10:33:01.763Z,948.4653
2023-04-29T10:34:01.770Z,948.4294
2023-04-29T10:35:04.919Z,948.3950
2023-04-29T10:36:08.014Z,948.3621
2023-04-29T10:37:11.147Z,948.3463
2023-04-29T10:38:14.275Z,948.3353
2023-04-29T10:39:17.419Z,948.3400
2023-04-29T10:40:20.549Z,948.3306
2023-04-29T10:41:23.656Z,948.3090
2023-04-29T10:42:26.809Z,948.3090
2023-04-29T10:43:29.944Z,948.2958
2023-04-29T10:44:29.895Z,948.2853
2023-04-29T10:45:33.035Z,948.2989
2023-04-29T10:46:36.211Z,948.3084
2023-04-29T10:47:39.307Z,948.3121
2023-04-29T10:48:42.431Z,948.3279
2023-04-29T10:49:45.590Z,948.3348
2023-04-29T10:50:48.757Z,948.3569
2023-04-29T10:51:51.872Z,948.3842
2023-04-29T10:52:54.999Z,948.3674
2023-04-29T10:53:58.214Z,948.3621
2023-04-29T10:54:58.156Z,948.3848
2023-04-29T10:56:01.328Z,948.4000
2023-04-29T10:57:01.303Z,948.4221
2023-04-29T10:58:04.473Z,948.4111
2023-04-29T10:59:07.636Z,948.4426
2023-04-29T11:00:10.792Z,948.4358
2023-04-29T11:01:13.942Z,948.4226
2023-04-29T11:02:17.078Z,948.4069
2023-04-29T11:03:20.693Z,948.3848
2023-04-29T11:04:20.732Z,948.3474
2023-04-29T11:05:20.649Z,948.3328
2023-04-29T11:06:23.826Z,948.3239
2023-04-29T11:07:26.979Z,948.3206
2023-04-29T11:08:30.144Z,948.3264
2023-04-29T11:09:33.337Z,948.3047
2023-04-29T11:10:36.502Z,948.3105
2023-04-29T11:11:39.665Z,948.2885
2023-04-29T11:12:42.799Z,948.2648
2023-04-29T11:13:45.957Z,948.2648
2023-04-29T11:14:49.120Z,948.2452
2023-04-29T11:15:49.117Z,948.2452
2023-04-29T11:16:52.347Z,948.2589
2023-04-29T11:17:52.359Z,948.2548
2023-04-29T11:18:55.497Z,948.2222
2023-04-29T11:19:58.691Z,948.2105
2023-04-29T11:21:01.843Z,948.2226
2023-04-29T11:22:05.011Z,948.2426
2023-04-29T11:23:08.172Z,948.2490
2023-04-29T11:24:11.356Z,948.2468
2023-04-29T11:25:14.556Z,948.2716
2023-04-29T11:26:14.516Z,948.2773
2023-04-29T11:27:14.550Z,948.2472
2023-04-29T11:28:17.686Z,948.2661
2023-04-29T11:29:20.890Z,948.2784
2023-04-29T11:30:20.869Z,948.2773
2023-04-29T11:31:24.782Z,948.2484
2023-04-29T11:32:25.771Z,948.2300
2023-04-29T11:33:25.800Z,948.2311
2023-04-29T11:34:28.954Z,948.2678
2023-04-29T11:35:32.143Z,948.2637
2023-04-29T11:36:32.101Z,948.2500
2023-04-29T11:37:35.240Z,948.2183
2023-04-29T11:38:38.400Z,948.1953
2023-04-29T11:39:41.619Z,948.1763
2023-04-29T11:40:44.751Z,948.1684
2023-04-29T11:41:47.936Z,948.1448
2023-04-29T11:42:51.090Z,948.1479
2023-04-29T11:43:54.234Z,948.1663
2023-04-29T11:44:57.408Z,948.1547
2023-04-29T11:46:00.629Z,948.1542
2023-04-29T11:47:03.762Z,948.1490
2023-04-29T11:48:06.949Z,948.1379
2023-04-29T11:49:10.048Z,948.1268
2023-04-29T11:50:13.223Z,948.0979
2023-04-29T11:51:16.354Z,948.0737
2023-04-29T11:52:19.526Z,948.0663
2023-04-29T11:53:22.682Z,948.0532
2023-04-29T11:54:25.944Z,948.0516
2023-04-29T11:55:25.904Z,948.0532
2023-04-29T11:56:29.060Z,948.0500
2023-04-29T11:57:32.244Z,948.0232
2023-04-29T11:58:35.404Z,948.0237
2023-04-29T11:59:38.545Z,948.0168
2023-04-29T12:00:41.830Z,947.9894
2023-04-29T12:01:41.787Z,947.9805
2023-04-29T12:02:45.043Z,947.9700
2023-04-29T12:03:45.399Z,947.9595
2023-04-29T12:04:45.614Z,947.9389
2023-04-29T12:05:45.743Z,947.9072
2023-04-29T12:06:45.669Z,947.9017
2023-04-29T12:07:48.808Z,947.9139
2023-04-29T12:08:51.954Z,947.9121
2023-04-29T12:09:55.114Z,947.9294